createdAt,value
2023-02-03T00:00:03.207Z,10.32
2023-02-03T00:01:02.647Z,10.32
2023-02-03T00:02:02.713Z,10.33
2023-02-03T00:03:02.791Z,10.33
2023-02-03T00:04:02.929Z,10.32
2023-02-03T00:05:02.371Z,10.33
2023-02-03T00:06:02.321Z,10.33
2023-02-03T00:07:02.149Z,10.37
2023-02-03T00:08:02.364Z,10.34
2023-02-03T00:09:01.943Z,10.34
2023-02-03T00:10:02.449Z,10.37
2023-02-03T00:11:02.239Z,10.39
2023-02-03T00:12:02.286Z,10.37
2023-02-03T00:13:02.181Z,10.37
2023-02-03T00:14:02.197Z,10.40
2023-02-03T00:15:02.637Z,10.42
2023-02-03T00:16:02.707Z,10.40
2023-02-03T00:17:02.803Z,10.40
2023-02-03T00:18:02.810Z,10.42
2023-02-03T00:19:02.729Z,10.43
2023-02-03T00:20:02.954Z,10.43
2023-02-03T00:21:02.838Z,10.42
2023-02-03T00:22:03.305Z,10.39
2023-02-03T00:23:02.960Z,10.37
2023-02-03T00:24:02.878Z,10.34
2023-02-03T00:25:03.199Z,10.33
2023-02-03T00:26:02.858Z,10.32
2023-02-03T00:27:02.955Z,10.32
2023-02-03T00:28:03.423Z,10.30
2023-02-03T00:29:02.937Z,10.26
2023-02-03T00:30:02.745Z,10.22
2023-02-03T00:31:03.047Z,10.21
2023-02-03T00:32:02.406Z,10.21
2023-02-03T00:33:02.214Z,10.22
2023-02-03T00:34:02.672Z,10.19
2023-02-03T00:35:02.208Z,10.18
2023-02-03T00:36:02.671Z,10.17
2023-02-03T00:37:02.516Z,10.15
2023-02-03T00:38:02.848Z,10.14
2023-02-03T00:39:02.759Z,10.14
2023-02-03T00:40:02.974Z,10.17
2023-02-03T00:41:02.792Z,10.17
2023-02-03T00:42:02.937Z,10.19
2023-02-03T00:43:02.873Z,10.18
2023-02-03T00:44:02.770Z,10.18
2023-02-03T00:45:02.717Z,10.21
2023-02-03T00:46:03.023Z,10.21
2023-02-03T00:47:03.347Z,10.19
2023-02-03T00:48:02.994Z,10.22
2023-02-03T00:49:03.491Z,10.21
2023-02-03T00:50:03.200Z,10.19
2023-02-03T00:51:02.890Z,10.21
2023-02-03T00:52:02.525Z,10.19
2023-02-03T00:53:02.799Z,10.19
2023-02-03T00:54:02.727Z,10.18
2023-02-03T00:55:02.444Z,10.19
2023-02-03T00:56:02.715Z,10.22
2023-02-03T00:57:02.520Z,10.24
2023-02-03T00:58:02.827Z,10.24
2023-02-03T00:59:02.670Z,10.28
2023-02-03T01:00:02.539Z,10.26
2023-02-03T01:01:02.527Z,10.25
2023-02-03T01:02:03.428Z,10.25
2023-02-03T01:03:03.204Z,10.26
2023-02-03T01:04:03.356Z,10.28
2023-02-03T01:05:03.065Z,10.32
2023-02-03T01:06:03.413Z,10.32
2023-02-03T01:07:03.719Z,10.36
2023-02-03T01:08:03.874Z,10.37
2023-02-03T01:09:03.519Z,10.36
2023-02-03T01:10:03.519Z,10.33
2023-02-03T01:11:03.368Z,10.34
2023-02-03T01:12:03.432Z,10.36
2023-02-03T01:13:03.314Z,10.36
2023-02-03T01:14:03.421Z,10.36
2023-02-03T01:15:02.835Z,10.37
2023-02-03T01:16:03.341Z,10.37
2023-02-03T01:17:03.426Z,10.39
2023-02-03T01:18:03.423Z,10.37
2023-02-03T01:19:03.458Z,10.39
2023-02-03T01:20:03.401Z,10.39
2023-02-03T01:21:03.217Z,10.40
2023-02-03T01:22:03.557Z,10.42
2023-02-03T01:23:03.403Z,10.44
2023-02-03T01:24:03.359Z,10.44
2023-02-03T01:25:03.089Z,10.43
2023-02-03T01:26:03.466Z,10.44
2023-02-03T01:27:02.979Z,10.44
2023-02-03T01:28:03.515Z,10.42
2023-02-03T01:29:03.159Z,10.43
2023-02-03T01:30:02.967Z,10.42
2023-02-03T01:31:03.403Z,10.43
2023-02-03T01:32:03.209Z,10.43
2023-02-03T01:33:03.208Z,10.46
2023-02-03T01:34:02.720Z,10.44
2023-02-03T01:35:02.733Z,10.44
2023-02-03T01:36:02.771Z,10.44
2023-02-03T01:37:03.325Z,10.44
2023-02-03T01:38:03.226Z,10.44
2023-02-03T01:39:03.820Z,10.46
2023-02-03T01:40:03.432Z,10.46
2023-02-03T01:41:03.761Z,10.46
2023-02-03T01:42:03.008Z,10.47
2023-02-03T01:43:02.765Z,10.51
2023-02-03T01:44:02.713Z,10.52
2023-02-03T01:45:02.959Z,10.53
2023-02-03T01:46:02.795Z,10.51
2023-02-03T01:47:03.489Z,10.52
2023-02-03T01:48:03.349Z,10.53
2023-02-03T01:49:03.703Z,10.52
2023-02-03T01:50:03.337Z,10.53
2023-02-03T01:51:03.126Z,10.51
2023-02-03T01:52:02.835Z,10.51
2023-02-03T01:53:02.912Z,10.51
2023-02-03T01:54:02.990Z,10.51
2023-02-03T01:55:02.472Z,10.51
2023-02-03T01:56:02.788Z,10.52
2023-02-03T01:57:03.301Z,10.52
2023-02-03T01:58:03.705Z,10.55
2023-02-03T01:59:03.144Z,10.55
2023-02-03T02:00:03.651Z,10.53
2023-02-03T02:01:03.282Z,10.55
2023-02-03T02:02:01.983Z,10.55
2023-02-03T02:03:02.083Z,10.55
2023-02-03T02:04:01.979Z,10.55
2023-02-03T02:05:01.738Z,10.56
2023-02-03T02:06:01.917Z,10.56
2023-02-03T02:07:02.116Z,10.59
2023-02-03T02:08:02.637Z,10.58
2023-02-03T02:09:02.570Z,10.59
2023-02-03T02:10:02.083Z,10.63
2023-02-03T02:11:02.164Z,10.63
2023-02-03T02:12:01.994Z,10.62
2023-02-03T02:13:02.258Z,10.60
2023-02-03T02:14:01.825Z,10.59
2023-02-03T02:15:02.102Z,10.60
2023-02-03T02:16:02.104Z,10.59
2023-02-03T02:17:02.204Z,10.58
2023-02-03T02:18:02.274Z,10.58
2023-02-03T02:19:02.006Z,10.60
2023-02-03T02:20:02.465Z,10.60
2023-02-03T02:21:02.472Z,10.62
2023-02-03T02:22:02.625Z,10.60
2023-02-03T02:23:02.551Z,10.60
2023-02-03T02:24:02.374Z,10.60
2023-02-03T02:25:02.634Z,10.60
2023-02-03T02:26:02.390Z,10.60
2023-02-03T02:27:02.321Z,10.62
2023-02-03T02:28:02.020Z,10.59
2023-02-03T02:29:02.243Z,10.59
2023-02-03T02:30:01.840Z,10.59
2023-02-03T02:31:02.466Z,10.60
2023-02-03T02:32:02.904Z,10.58
2023-02-03T02:33:02.348Z,10.60
2023-02-03T02:34:03.748Z,10.58
2023-02-03T02:35:02.820Z,10.60
2023-02-03T02:36:02.470Z,10.59
2023-02-03T02:37:02.001Z,10.60
2023-02-03T02:38:01.774Z,10.62
2023-02-03T02:39:01.774Z,10.63
2023-02-03T02:40:01.619Z,10.66
2023-02-03T02:41:01.752Z,10.68
2023-02-03T02:42:02.385Z,10.65
2023-02-03T02:43:01.752Z,10.66
2023-02-03T02:44:02.074Z,10.65
2023-02-03T02:45:01.847Z,10.65
2023-02-03T02:46:02.116Z,10.62
2023-02-03T02:47:02.624Z,10.65
2023-02-03T02:48:02.280Z,10.63
2023-02-03T02:49:02.494Z,10.63
2023-02-03T02:50:02.242Z,10.62
2023-02-03T02:51:02.315Z,10.62
2023-02-03T02:52:01.397Z,10.62
2023-02-03T02:53:01.792Z,10.62
2023-02-03T02:54:01.867Z,10.62
2023-02-03T02:55:01.680Z,10.65
2023-02-03T02:56:01.901Z,10.68
2023-02-03T02:57:01.714Z,10.70
2023-02-03T02:58:02.289Z,10.70
2023-02-03T02:59:02.043Z,10.68
2023-02-03T03:00:02.291Z,10.65
2023-02-03T03:01:01.706Z,10.65
2023-02-03T03:02:02.449Z,10.63
2023-02-03T03:03:02.666Z,10.60
2023-02-03T03:04:02.355Z,10.59
2023-02-03T03:05:02.907Z,10.60
2023-02-03T03:06:02.520Z,10.60
2023-02-03T03:07:02.474Z,10.59
2023-02-03T03:08:02.395Z,10.59
2023-02-03T03:09:03.022Z,10.59
2023-02-03T03:10:02.719Z,10.58
2023-02-03T03:11:02.497Z,10.56
2023-02-03T03:12:02.916Z,10.58
2023-02-03T03:13:02.981Z,10.59
2023-02-03T03:14:02.933Z,10.60
2023-02-03T03:15:02.525Z,10.62
2023-02-03T03:16:03.087Z,10.59
2023-02-03T03:17:02.809Z,10.60
2023-02-03T03:18:02.952Z,10.58
2023-02-03T03:19:03.348Z,10.59
2023-02-03T03:20:02.997Z,10.59
2023-02-03T03:21:03.290Z,10.62
2023-02-03T03:22:02.759Z,10.59
2023-02-03T03:23:02.766Z,10.58
2023-02-03T03:24:02.348Z,10.58
2023-02-03T03:25:02.271Z,10.59
2023-02-03T03:26:02.817Z,10.59
2023-02-03T03:27:02.874Z,10.58
2023-02-03T03:28:03.105Z,10.59
2023-02-03T03:29:02.944Z,10.59
2023-02-03T03:30:02.499Z,10.58
2023-02-03T03:31:03.036Z,10.59
2023-02-03T03:32:03.391Z,10.60
2023-02-03T03:33:03.089Z,10.59
2023-02-03T03:34:02.878Z,10.60
2023-02-03T03:35:02.683Z,10.62
2023-02-03T03:36:03.226Z,10.59
2023-02-03T03:37:03.458Z,10.59
2023-02-03T03:38:03.042Z,10.62
2023-02-03T03:39:02.872Z,10.63
2023-02-03T03:40:02.944Z,10.65
2023-02-03T03:41:03.277Z,10.65
2023-02-03T03:42:02.296Z,10.66
2023-02-03T03:43:02.216Z,10.71
2023-02-03T03:44:02.103Z,10.70
2023-02-03T03:45:02.546Z,10.66
2023-02-03T03:46:02.541Z,10.63
2023-02-03T03:47:02.409Z,10.62
2023-02-03T03:48:02.964Z,10.60
2023-02-03T03:49:02.546Z,10.60
2023-02-03T03:50:02.491Z,10.60
2023-02-03T03:51:02.561Z,10.62
2023-02-03T03:52:03.044Z,10.62
2023-02-03T03:53:03.043Z,10.63
2023-02-03T03:54:03.289Z,10.65
2023-02-03T03:55:03.142Z,10.65
2023-02-03T03:56:03.430Z,10.63
2023-02-03T03:57:02.717Z,10.65
2023-02-03T03:58:02.583Z,10.63
2023-02-03T03:59:02.828Z,10.63
2023-02-03T04:00:02.455Z,10.65
2023-02-03T04:01:02.402Z,10.65
2023-02-03T04:02:03.015Z,10.65
2023-02-03T04:03:03.281Z,10.66
2023-02-03T04:04:03.060Z,10.66
2023-02-03T04:05:03.170Z,10.70
2023-02-03T04:06:03.036Z,10.66
2023-02-03T04:07:02.438Z,10.66
2023-02-03T04:08:03.015Z,10.66
2023-02-03T04:09:02.457Z,10.65
2023-02-03T04:10:02.882Z,10.65
2023-02-03T04:11:02.589Z,10.65
2023-02-03T04:12:03.115Z,10.63
2023-02-03T04:13:03.558Z,10.66
2023-02-03T04:14:03.317Z,10.65
2023-02-03T04:15:03.559Z,10.66
2023-02-03T04:16:03.144Z,10.65
2023-02-03T04:17:02.701Z,10.65
2023-02-03T04:18:02.616Z,10.65
2023-02-03T04:19:02.408Z,10.65
2023-02-03T04:20:02.598Z,10.65
2023-02-03T04:21:02.935Z,10.65
2023-02-03T04:22:03.389Z,10.65
2023-02-03T04:23:03.211Z,10.66
2023-02-03T04:24:03.596Z,10.66
2023-02-03T04:25:03.652Z,10.66
2023-02-03T04:26:02.983Z,10.71
2023-02-03T04:27:04.914Z,10.71
2023-02-03T04:28:02.522Z,10.68
2023-02-03T04:29:02.231Z,10.66
2023-02-03T04:30:02.168Z,10.66
2023-02-03T04:31:02.919Z,10.66
2023-02-03T04:32:02.529Z,10.68
2023-02-03T04:33:02.677Z,10.65
2023-02-03T04:34:02.562Z,10.62
2023-02-03T04:35:02.214Z,10.63
2023-02-03T04:36:02.721Z,10.62
2023-02-03T04:37:02.704Z,10.63
2023-02-03T04:38:03.319Z,10.65
2023-02-03T04:39:02.950Z,10.65
2023-02-03T04:40:02.872Z,10.65
2023-02-03T04:41:02.681Z,10.66
2023-02-03T04:42:03.483Z,10.65
2023-02-03T04:43:03.347Z,10.63
2023-02-03T04:44:03.151Z,10.62
2023-02-03T04:45:03.091Z,10.62
2023-02-03T04:46:03.563Z,10.62
2023-02-03T04:47:02.482Z,10.60
2023-02-03T04:48:02.789Z,10.62
2023-02-03T04:49:02.650Z,10.65
2023-02-03T04:50:03.065Z,10.68
2023-02-03T04:51:03.149Z,10.66
2023-02-03T04:52:02.567Z,10.65
2023-02-03T04:53:02.395Z,10.65
2023-02-03T04:54:02.591Z,10.65
2023-02-03T04:55:02.480Z,10.68
2023-02-03T04:56:02.579Z,10.65
2023-02-03T04:57:03.360Z,10.65
2023-02-03T04:58:02.999Z,10.63
2023-02-03T04:59:02.953Z,10.66
2023-02-03T05:00:02.732Z,10.65
2023-02-03T05:01:02.761Z,10.65
2023-02-03T05:02:02.363Z,10.65
2023-02-03T05:03:02.410Z,10.63
2023-02-03T05:04:02.030Z,10.63
2023-02-03T05:05:01.898Z,10.63
2023-02-03T05:06:02.249Z,10.66
2023-02-03T05:07:02.403Z,10.68
2023-02-03T05:08:02.292Z,10.70
2023-02-03T05:09:02.768Z,10.66
2023-02-03T05:10:02.884Z,10.66
2023-02-03T05:11:02.631Z,10.71
2023-02-03T05:12:01.979Z,10.68
2023-02-03T05:13:02.029Z,10.65
2023-02-03T05:14:01.489Z,10.63
2023-02-03T05:15:01.964Z,10.63
2023-02-03T05:16:01.633Z,10.63
2023-02-03T05:17:02.190Z,10.65
2023-02-03T05:18:02.796Z,10.60
2023-02-03T05:19:02.350Z,10.60
2023-02-03T05:20:02.579Z,10.62
2023-02-03T05:21:02.382Z,10.63
2023-02-03T05:22:01.982Z,10.60
2023-02-03T05:23:01.604Z,10.60
2023-02-03T05:24:02.097Z,10.62
2023-02-03T05:25:01.738Z,10.60
2023-02-03T05:26:01.604Z,10.59
2023-02-03T05:27:02.586Z,10.60
2023-02-03T05:28:02.632Z,10.60
2023-02-03T05:29:02.211Z,10.60
2023-02-03T05:30:02.517Z,10.60
2023-02-03T05:31:02.459Z,10.62
2023-02-03T05:32:02.783Z,10.65
2023-02-03T05:33:02.420Z,10.65
2023-02-03T05:34:02.781Z,10.62
2023-02-03T05:35:02.274Z,10.63
2023-02-03T05:36:02.294Z,10.62
2023-02-03T05:37:02.790Z,10.63
2023-02-03T05:38:02.939Z,10.65
2023-02-03T05:39:02.278Z,10.63
2023-02-03T05:40:02.554Z,10.60
2023-02-03T05:41:02.419Z,10.59
2023-02-03T05:42:02.874Z,10.59
2023-02-03T05:43:02.896Z,10.62
2023-02-03T05:44:02.573Z,10.65
2023-02-03T05:45:02.389Z,10.62
2023-02-03T05:46:02.937Z,10.62
2023-02-03T05:47:01.890Z,10.62
2023-02-03T05:48:01.738Z,10.62
2023-02-03T05:49:02.193Z,10.60
2023-02-03T05:50:02.283Z,10.63
2023-02-03T05:51:01.651Z,10.65
2023-02-03T05:52:02.329Z,10.66
2023-02-03T05:53:02.109Z,10.70
2023-02-03T05:54:01.957Z,10.66
2023-02-03T05:55:01.891Z,10.68
2023-02-03T05:56:02.111Z,10.66
2023-02-03T05:57:02.515Z,10.68
2023-02-03T05:58:02.211Z,10.66
2023-02-03T05:59:01.957Z,10.66
2023-02-03T06:00:02.433Z,10.66
2023-02-03T06:01:02.058Z,10.66
2023-02-03T06:02:02.928Z,10.65
2023-02-03T06:03:02.679Z,10.65
2023-02-03T06:04:02.992Z,10.65
2023-02-03T06:05:02.487Z,10.65
2023-02-03T06:06:02.532Z,10.63
2023-02-03T06:07:02.197Z,10.66
2023-02-03T06:08:02.121Z,10.66
2023-02-03T06:09:02.208Z,10.70
2023-02-03T06:10:02.455Z,10.70
2023-02-03T06:11:01.983Z,10.70
2023-02-03T06:12:01.866Z,10.65
2023-02-03T06:13:01.880Z,10.65
2023-02-03T06:14:02.087Z,10.63
2023-02-03T06:15:02.007Z,10.63
2023-02-03T06:16:02.058Z,10.65
2023-02-03T06:17:03.204Z,10.63
2023-02-03T06:18:02.840Z,10.63
2023-02-03T06:19:02.636Z,10.63
2023-02-03T06:20:03.043Z,10.65
2023-02-03T06:21:02.665Z,10.66
2023-02-03T06:22:03.046Z,10.68
2023-02-03T06:23:03.213Z,10.70
2023-02-03T06:24:02.881Z,10.68
2023-02-03T06:25:02.840Z,10.68
2023-02-03T06:26:02.677Z,10.66
2023-02-03T06:27:02.082Z,10.68
2023-02-03T06:28:02.664Z,10.66
2023-02-03T06:29:02.130Z,10.68
2023-02-03T06:30:02.638Z,10.68
2023-02-03T06:31:02.557Z,10.68
2023-02-03T06:32:02.872Z,10.71
2023-02-03T06:33:03.173Z,10.74
2023-02-03T06:34:02.781Z,10.73
2023-02-03T06:35:02.614Z,10.74
2023-02-03T06:36:03.160Z,10.74
2023-02-03T06:37:02.339Z,10.73
2023-02-03T06:38:02.315Z,10.71
2023-02-03T06:39:02.624Z,10.76
2023-02-03T06:40:02.206Z,10.76
2023-02-03T06:41:02.117Z,10.74
2023-02-03T06:42:01.976Z,10.71
2023-02-03T06:43:02.455Z,10.71
2023-02-03T06:44:02.448Z,10.71
2023-02-03T06:45:02.576Z,10.71
2023-02-03T06:46:02.167Z,10.71
2023-02-03T06:47:02.033Z,10.73
2023-02-03T06:48:02.168Z,10.73
2023-02-03T06:49:01.883Z,10.74
2023-02-03T06:50:02.009Z,10.74
2023-02-03T06:51:01.818Z,10.74
2023-02-03T06:52:02.533Z,10.74
2023-02-03T06:53:02.480Z,10.74
2023-02-03T06:54:02.666Z,10.76
2023-02-03T06:55:02.318Z,10.76
2023-02-03T06:56:02.236Z,10.73
2023-02-03T06:57:03.189Z,10.74
2023-02-03T06:58:03.214Z,10.74
2023-02-03T06:59:03.095Z,10.76
2023-02-03T07:00:02.657Z,10.74
2023-02-03T07:01:03.242Z,10.76
2023-02-03T07:02:02.278Z,10.74
2023-02-03T07:03:02.519Z,10.74
2023-02-03T07:04:02.434Z,10.76
2023-02-03T07:05:02.029Z,10.76
2023-02-03T07:06:01.911Z,10.76
2023-02-03T07:07:02.427Z,10.78
2023-02-03T07:08:02.457Z,10.78
2023-02-03T07:09:02.324Z,10.77
2023-02-03T07:10:02.250Z,10.77
2023-02-03T07:11:02.823Z,10.78
2023-02-03T07:12:02.148Z,10.77
2023-02-03T07:13:02.133Z,10.77
2023-02-03T07:14:02.285Z,10.76
2023-02-03T07:15:02.413Z,10.77
2023-02-03T07:16:02.202Z,10.77
2023-02-03T07:17:02.415Z,10.78
2023-02-03T07:18:02.491Z,10.78
2023-02-03T07:19:02.528Z,10.77
2023-02-03T07:20:02.138Z,10.77
2023-02-03T07:21:02.460Z,10.83
2023-02-03T07:22:02.102Z,10.83
2023-02-03T07:23:02.143Z,10.83
2023-02-03T07:24:02.391Z,10.81
2023-02-03T07:25:01.783Z,10.84
2023-02-03T07:26:01.729Z,10.84
2023-02-03T07:27:04.406Z,10.83
2023-02-03T07:28:02.458Z,10.81
2023-02-03T07:29:02.270Z,10.81
2023-02-03T07:30:02.453Z,10.83
2023-02-03T07:31:02.695Z,10.81
2023-02-03T07:32:01.886Z,10.81
2023-02-03T07:33:01.509Z,10.83
2023-02-03T07:34:02.006Z,10.83
2023-02-03T07:35:01.980Z,10.84
2023-02-03T07:36:01.693Z,10.81
2023-02-03T07:37:02.486Z,10.83
2023-02-03T07:38:02.618Z,10.80
2023-02-03T07:39:02.559Z,10.81
2023-02-03T07:40:02.215Z,10.83
2023-02-03T07:41:02.347Z,10.84
2023-02-03T07:42:02.617Z,10.83
2023-02-03T07:43:02.172Z,10.83
2023-02-03T07:44:02.740Z,10.83
2023-02-03T07:45:02.651Z,10.86
2023-02-03T07:46:02.283Z,10.84
2023-02-03T07:47:02.616Z,10.86
2023-02-03T07:48:02.410Z,10.83
2023-02-03T07:49:02.370Z,10.84
2023-02-03T07:50:02.372Z,10.86
2023-02-03T07:51:02.599Z,10.88
2023-02-03T07:52:01.975Z,10.88
2023-02-03T07:53:02.302Z,10.88
2023-02-03T07:54:01.841Z,10.84
2023-02-03T07:55:01.802Z,10.86
2023-02-03T07:56:01.872Z,10.88
2023-02-03T07:57:02.559Z,10.89
2023-02-03T07:58:03.399Z,10.89
2023-02-03T07:59:02.558Z,10.91
2023-02-03T08:00:02.324Z,10.91
2023-02-03T08:01:02.686Z,10.95
2023-02-03T08:02:02.717Z,10.94
2023-02-03T08:03:02.560Z,10.95
2023-02-03T08:04:02.756Z,10.94
2023-02-03T08:05:02.873Z,10.94
2023-02-03T08:06:02.693Z,10.96
2023-02-03T08:07:03.269Z,10.98
2023-02-03T08:08:03.312Z,10.98
2023-02-03T08:09:03.118Z,10.98
2023-02-03T08:10:03.277Z,10.96
2023-02-03T08:11:03.345Z,10.99
2023-02-03T08:12:02.930Z,10.98
2023-02-03T08:13:02.657Z,10.98
2023-02-03T08:14:02.554Z,10.96
2023-02-03T08:15:02.506Z,10.98
2023-02-03T08:16:02.484Z,10.98
2023-02-03T08:17:03.365Z,10.99
2023-02-03T08:18:03.261Z,10.99
2023-02-03T08:19:03.344Z,11.01
2023-02-03T08:20:03.233Z,10.99
2023-02-03T08:21:03.396Z,11.01
2023-02-03T08:22:02.775Z,11.01
2023-02-03T08:23:02.452Z,11.02
2023-02-03T08:24:02.490Z,11.01
2023-02-03T08:25:02.294Z,10.99
2023-02-03T08:26:02.773Z,10.99
2023-02-03T08:27:03.200Z,11.01
2023-02-03T08:28:02.790Z,10.99
2023-02-03T08:29:02.939Z,10.99
2023-02-03T08:30:03.195Z,10.98
2023-02-03T08:31:03.106Z,11.01
2023-02-03T08:32:05.305Z,10.99
2023-02-03T08:33:03.444Z,11.01
2023-02-03T08:34:02.820Z,11.01
2023-02-03T08:35:02.894Z,11.02
2023-02-03T08:36:02.963Z,11.02
2023-02-03T08:37:03.445Z,11.01
2023-02-03T08:38:03.270Z,11.02
2023-02-03T08:39:03.257Z,11.02
2023-02-03T08:40:03.419Z,11.02
2023-02-03T08:41:03.278Z,11.03
2023-02-03T08:42:02.442Z,11.03
2023-02-03T08:43:03.009Z,11.07
2023-02-03T08:44:02.533Z,11.06
2023-02-03T08:45:05.084Z,11.09
2023-02-03T08:46:02.884Z,11.09
2023-02-03T08:47:02.645Z,11.11
2023-02-03T08:48:03.202Z,11.09
2023-02-03T08:49:02.595Z,11.10
2023-02-03T08:50:03.268Z,11.11
2023-02-03T08:51:03.116Z,11.14
2023-02-03T08:52:02.575Z,11.11
2023-02-03T08:53:02.637Z,11.13
2023-02-03T08:54:02.556Z,11.11
2023-02-03T08:55:02.215Z,11.13
2023-02-03T08:56:02.791Z,11.14
2023-02-03T08:57:02.395Z,11.16
2023-02-03T08:58:03.040Z,11.16
2023-02-03T08:59:02.544Z,11.17
2023-02-03T09:00:03.040Z,11.16
2023-02-03T09:01:02.509Z,11.16
2023-02-03T09:02:01.900Z,11.17
2023-02-03T09:03:01.833Z,11.16
2023-02-03T09:04:02.359Z,11.17
2023-02-03T09:05:01.995Z,11.19
2023-02-03T09:06:02.073Z,11.17
2023-02-03T09:07:02.209Z,11.17
2023-02-03T09:08:02.173Z,11.19
2023-02-03T09:09:02.140Z,11.20
2023-02-03T09:10:02.626Z,11.20
2023-02-03T09:11:02.457Z,11.21
2023-02-03T09:12:02.639Z,11.24
2023-02-03T09:13:02.431Z,11.25
2023-02-03T09:14:02.340Z,11.24
2023-02-03T09:15:02.964Z,11.25
2023-02-03T09:16:02.630Z,11.24
2023-02-03T09:17:02.717Z,11.25
2023-02-03T09:18:02.745Z,11.21
2023-02-03T09:19:02.897Z,11.27
2023-02-03T09:20:02.736Z,11.27
2023-02-03T09:21:02.774Z,11.27
2023-02-03T09:22:02.559Z,11.25
2023-02-03T09:23:02.558Z,11.25
2023-02-03T09:24:02.692Z,11.24
2023-02-03T09:25:02.878Z,11.24
2023-02-03T09:26:02.851Z,11.25
2023-02-03T09:27:02.348Z,11.27
2023-02-03T09:28:02.841Z,11.25
2023-02-03T09:29:02.597Z,11.24
2023-02-03T09:30:02.709Z,11.24
2023-02-03T09:31:02.500Z,11.24
2023-02-03T09:32:02.998Z,11.20
2023-02-03T09:33:02.990Z,11.24
2023-02-03T09:34:03.230Z,11.20
2023-02-03T09:35:03.304Z,11.24
2023-02-03T09:36:03.180Z,11.20
2023-02-03T09:37:02.191Z,11.19
2023-02-03T09:38:02.367Z,11.20
2023-02-03T09:39:02.206Z,11.21
2023-02-03T09:40:02.242Z,11.19
2023-02-03T09:41:11.370Z,11.19
2023-02-03T09:42:02.723Z,11.19
2023-02-03T09:43:03.222Z,11.20
2023-02-03T09:44:02.867Z,11.19
2023-02-03T09:45:02.833Z,11.17
2023-02-03T09:46:03.162Z,11.17
2023-02-03T09:47:02.214Z,11.17
2023-02-03T09:48:02.149Z,11.14
2023-02-03T09:49:01.987Z,11.14
2023-02-03T09:50:02.425Z,11.13
2023-02-03T09:51:02.327Z,11.14
2023-02-03T09:52:02.810Z,11.13
2023-02-03T09:53:02.833Z,11.14
2023-02-03T09:54:02.690Z,11.13
2023-02-03T09:55:02.938Z,11.14
2023-02-03T09:56:02.811Z,11.14
2023-02-03T09:57:02.332Z,11.14
2023-02-03T09:58:02.210Z,11.14
2023-02-03T09:59:02.360Z,11.16
2023-02-03T10:00:02.346Z,11.16
2023-02-03T10:01:02.417Z,11.14
2023-02-03T10:02:02.298Z,11.14
2023-02-03T10:03:02.390Z,11.14
2023-02-03T10:04:02.404Z,11.13
2023-02-03T10:05:02.425Z,11.14
2023-02-03T10:06:02.320Z,11.14
2023-02-03T10:07:02.889Z,11.16
2023-02-03T10:08:03.017Z,11.14
2023-02-03T10:09:02.989Z,11.16
2023-02-03T10:10:02.971Z,11.14
2023-02-03T10:11:03.206Z,11.16
2023-02-03T10:12:03.170Z,11.16
2023-02-03T10:13:03.109Z,11.16
2023-02-03T10:14:02.980Z,11.17
2023-02-03T10:15:02.980Z,11.17
2023-02-03T10:16:02.928Z,11.19
2023-02-03T10:17:02.856Z,11.17
2023-02-03T10:18:02.612Z,11.17
2023-02-03T10:19:04.172Z,11.19
2023-02-03T10:20:02.873Z,11.19
2023-02-03T10:21:02.576Z,11.20
2023-02-03T10:22:03.256Z,11.20
2023-02-03T10:23:03.522Z,11.25
2023-02-03T10:24:03.375Z,11.21
2023-02-03T10:25:03.262Z,11.21
2023-02-03T10:26:03.341Z,11.20
2023-02-03T10:27:03.376Z,11.21
2023-02-03T10:28:03.512Z,11.19
2023-02-03T10:29:03.227Z,11.20
2023-02-03T10:30:03.288Z,11.20
2023-02-03T10:31:03.421Z,11.21
2023-02-03T10:32:03.021Z,11.20
2023-02-03T10:33:02.709Z,11.20
2023-02-03T10:34:02.729Z,11.19
2023-02-03T10:35:02.563Z,11.21
2023-02-03T10:36:02.601Z,11.20
2023-02-03T10:37:02.568Z,11.19
2023-02-03T10:38:02.586Z,11.19
2023-02-03T10:39:02.278Z,11.20
2023-02-03T10:40:02.278Z,11.19
2023-02-03T10:41:02.369Z,11.20
2023-02-03T10:42:02.897Z,11.19
2023-02-03T10:43:02.919Z,11.17
2023-02-03T10:44:02.792Z,11.16
2023-02-03T10:45:03.044Z,11.14
2023-02-03T10:46:02.905Z,11.14
2023-02-03T10:47:03.503Z,11.14
2023-02-03T10:48:03.110Z,11.14
2023-02-03T10:49:03.279Z,11.13
2023-02-03T10:50:03.238Z,11.14
2023-02-03T10:51:03.262Z,11.14
2023-02-03T10:52:02.916Z,11.14
2023-02-03T10:53:02.524Z,11.13
2023-02-03T10:54:02.914Z,11.14
2023-02-03T10:55:02.959Z,11.16
2023-02-03T10:56:02.432Z,11.14
2023-02-03T10:57:02.965Z,11.16
2023-02-03T10:58:02.578Z,11.16
2023-02-03T10:59:03.001Z,11.19
2023-02-03T11:00:02.814Z,11.19
2023-02-03T11:01:02.456Z,11.19
2023-02-03T11:02:02.288Z,11.17
2023-02-03T11:03:02.175Z,11.19
2023-02-03T11:04:02.238Z,11.16
2023-02-03T11:05:01.974Z,11.16
2023-02-03T11:06:01.954Z,11.17
2023-02-03T11:07:02.521Z,11.19
2023-02-03T11:08:02.234Z,11.21
2023-02-03T11:09:02.149Z,11.24
2023-02-03T11:10:02.154Z,11.21
2023-02-03T11:11:02.087Z,11.24
2023-02-03T11:12:02.797Z,11.24
2023-02-03T11:13:02.744Z,11.25
2023-02-03T11:14:02.808Z,11.27
2023-02-03T11:15:02.713Z,11.28
2023-02-03T11:16:02.557Z,11.29
2023-02-03T11:17:02.255Z,11.32
2023-02-03T11:18:01.917Z,11.29
2023-02-03T11:19:01.853Z,11.32
2023-02-03T11:20:01.864Z,11.34
2023-02-03T11:21:01.816Z,11.34
2023-02-03T11:22:02.528Z,11.34
2023-02-03T11:23:02.032Z,11.34
2023-02-03T11:24:01.983Z,11.34
2023-02-03T11:25:02.290Z,11.34
2023-02-03T11:26:02.395Z,11.34
2023-02-03T11:27:03.126Z,11.34
2023-02-03T11:28:02.757Z,11.36
2023-02-03T11:29:02.912Z,11.32
2023-02-03T11:30:02.589Z,11.32
2023-02-03T11:31:02.571Z,11.35
2023-02-03T11:32:03.297Z,11.36
2023-02-03T11:33:02.926Z,11.36
2023-02-03T11:34:02.531Z,11.36
2023-02-03T11:35:02.805Z,11.36
2023-02-03T11:36:02.656Z,11.36
2023-02-03T11:37:01.568Z,11.39
2023-02-03T11:38:01.623Z,11.38
2023-02-03T11:39:01.574Z,11.41
2023-02-03T11:40:01.748Z,11.44
2023-02-03T11:41:02.216Z,11.44
2023-02-03T11:42:02.242Z,11.43
2023-02-03T11:43:02.879Z,11.44
2023-02-03T11:44:02.666Z,11.43
2023-02-03T11:45:02.472Z,11.46
2023-02-03T11:46:02.303Z,11.43
2023-02-03T11:47:02.379Z,11.41
2023-02-03T11:48:02.964Z,11.41
2023-02-03T11:49:02.674Z,11.41
2023-02-03T11:50:02.715Z,11.41
2023-02-03T11:51:03.008Z,11.41
2023-02-03T11:52:02.597Z,11.41
2023-02-03T11:53:02.144Z,11.43
2023-02-03T11:54:01.650Z,11.41
2023-02-03T11:55:02.197Z,11.41
2023-02-03T11:56:02.274Z,11.41
2023-02-03T11:57:01.846Z,11.39
2023-02-03T11:58:02.425Z,11.36
2023-02-03T11:59:02.170Z,11.35
2023-02-03T12:00:02.218Z,11.35
2023-02-03T12:01:02.367Z,11.34
2023-02-03T12:02:02.245Z,11.34
2023-02-03T12:03:02.722Z,11.36
2023-02-03T12:04:02.762Z,11.35
2023-02-03T12:05:02.427Z,11.35
2023-02-03T12:06:02.453Z,11.34
2023-02-03T12:07:02.932Z,11.35
2023-02-03T12:08:02.759Z,11.35
2023-02-03T12:09:02.428Z,11.34
2023-02-03T12:10:02.516Z,11.35
2023-02-03T12:11:02.245Z,11.35
2023-02-03T12:12:02.782Z,11.32
2023-02-03T12:13:02.515Z,11.34
2023-02-03T12:14:02.477Z,11.32
2023-02-03T12:15:02.454Z,11.32
2023-02-03T12:16:02.885Z,11.29
2023-02-03T12:17:02.231Z,11.31
2023-02-03T12:18:02.830Z,11.29
2023-02-03T12:19:02.813Z,11.29
2023-02-03T12:20:02.940Z,11.28
2023-02-03T12:21:02.985Z,11.28
2023-02-03T12:22:02.936Z,11.29
2023-02-03T12:23:02.691Z,11.29
2023-02-03T12:24:02.676Z,11.28
2023-02-03T12:25:03.280Z,11.28
2023-02-03T12:26:02.990Z,11.27
2023-02-03T12:27:03.036Z,11.28
2023-02-03T12:28:02.787Z,11.27
2023-02-03T12:29:03.401Z,11.27
2023-02-03T12:30:03.186Z,11.25
2023-02-03T12:31:03.298Z,11.27
2023-02-03T12:32:02.976Z,11.28
2023-02-03T12:33:02.665Z,11.27
2023-02-03T12:34:02.683Z,11.27
2023-02-03T12:35:02.646Z,11.28
2023-02-03T12:36:02.362Z,11.27
2023-02-03T12:37:02.519Z,11.28
2023-02-03T12:38:02.858Z,11.25
2023-02-03T12:39:03.096Z,11.25
2023-02-03T12:40:02.773Z,11.25
2023-02-03T12:41:02.719Z,11.27
2023-02-03T12:42:02.663Z,11.25
2023-02-03T12:43:02.218Z,11.27
2023-02-03T12:44:02.119Z,11.25
2023-02-03T12:45:02.134Z,11.25
2023-02-03T12:46:02.526Z,11.25
2023-02-03T12:47:02.631Z,11.25
2023-02-03T12:48:03.186Z,11.27
2023-02-03T12:49:02.778Z,11.25
2023-02-03T12:50:03.017Z,11.25
2023-02-03T12:51:03.264Z,11.29
2023-02-03T12:52:03.252Z,11.28